sensor_id;sensor_type;location;lat;lon;timestamp;P1;durP1;ratioP1;P2;durP2;ratioP2
36189;SDS011;22232;50.914;13.858;2024-01-11T00:00:43;15.95;;;6.97;;
36189;SDS011;22232;50.914;13.858;2024-01-11T00:03:10;12.07;;;6.80;;
36189;SDS011;22232;50.914;13.858;2024-01-11T00:05:38;12.40;;;6.50;;
36189;SDS011;22232;50.914;13.858;2024-01-11T00:08:07;13.73;;;6.82;;
36189;SDS011;22232;50.914;13.858;2024-01-11T00:10:35;14.63;;;6.30;;
36189;SDS011;22232;50.914;13.858;2024-01-11T00:13:03;13.77;;;6.35;;
36189;SDS011;22232;50.914;13.858;2024-01-11T00:15:31;17.27;;;6.68;;
36189;SDS011;22232;50.914;13.858;2024-01-11T00:17:59;16.73;;;6.88;;
36189;SDS011;22232;50.914;13.858;2024-01-11T00:20:27;15.65;;;6.63;;
36189;SDS011;22232;50.914;13.858;2024-01-11T00:22:54;12.88;;;5.68;;
36189;SDS011;22232;50.914;13.858;2024-01-11T00:25:22;13.60;;;6.10;;
36189;SDS011;22232;50.914;13.858;2024-01-11T00:27:50;13.70;;;5.97;;
36189;SDS011;22232;50.914;13.858;2024-01-11T00:30:18;12.48;;;5.85;;
36189;SDS011;22232;50.914;13.858;2024-01-11T00:32:46;14.50;;;5.97;;
36189;SDS011;22232;50.914;13.858;2024-01-11T00:35:14;13.73;;;6.50;;
36189;SDS011;22232;50.914;13.858;2024-01-11T00:37:41;13.45;;;6.20;;
36189;SDS011;22232;50.914;13.858;2024-01-11T00:40:09;13.63;;;5.93;;
36189;SDS011;22232;50.914;13.858;2024-01-11T00:42:37;10.32;;;5.07;;
36189;SDS011;22232;50.914;13.858;2024-01-11T00:45:05;13.35;;;5.32;;
36189;SDS011;22232;50.914;13.858;2024-01-11T00:47:33;10.32;;;4.60;;
36189;SDS011;22232;50.914;13.858;2024-01-11T00:50:00;13.48;;;5.30;;
36189;SDS011;22232;50.914;13.858;2024-01-11T00:52:28;9.32;;;4.75;;
36189;SDS011;22232;50.914;13.858;2024-01-11T00:54:56;9.95;;;4.90;;
36189;SDS011;22232;50.914;13.858;2024-01-11T00:57:23;13.73;;;5.72;;
36189;SDS011;22232;50.914;13.858;2024-01-11T00:59:51;10.60;;;5.18;;
36189;SDS011;22232;50.914;13.858;2024-01-11T01:02:19;14.18;;;5.03;;
36189;SDS011;22232;50.914;13.858;2024-01-11T01:04:48;11.98;;;4.93;;
36189;SDS011;22232;50.914;13.858;2024-01-11T01:07:15;12.32;;;5.50;;
36189;SDS011;22232;50.914;13.858;2024-01-11T01:09:43;11.95;;;5.35;;
36189;SDS011;22232;50.914;13.858;2024-01-11T01:12:11;12.82;;;5.32;;
36189;SDS011;22232;50.914;13.858;2024-01-11T01:14:38;10.48;;;4.82;;
36189;SDS011;22232;50.914;13.858;2024-01-11T01:17:06;13.05;;;4.80;;
36189;SDS011;22232;50.914;13.858;2024-01-11T01:19:34;10.48;;;4.90;;
36189;SDS011;22232;50.914;13.858;2024-01-11T01:22:02;11.18;;;4.70;;
36189;SDS011;22232;50.914;13.858;2024-01-11T01:24:30;12.48;;;5.57;;
36189;SDS011;22232;50.914;13.858;2024-01-11T01:26:58;10.57;;;4.75;;
36189;SDS011;22232;50.914;13.858;2024-01-11T01:29:26;12.27;;;5.13;;
36189;SDS011;22232;50.914;13.858;2024-01-11T01:31:54;11.20;;;5.32;;
36189;SDS011;22232;50.914;13.858;2024-01-11T01:34:22;12.52;;;5.80;;
36189;SDS011;22232;50.914;13.858;2024-01-11T01:36:49;8.50;;;4.28;;
36189;SDS011;22232;50.914;13.858;2024-01-11T01:39:17;12.18;;;4.97;;
36189;SDS011;22232;50.914;13.858;2024-01-11T01:41:45;11.95;;;4.65;;
36189;SDS011;22232;50.914;13.858;2024-01-11T01:44:12;10.80;;;4.57;;
36189;SDS011;22232;50.914;13.858;2024-01-11T01:46:40;12.32;;;5.70;;
36189;SDS011;22232;50.914;13.858;2024-01-11T01:49:08;17.00;;;6.05;;
36189;SDS011;22232;50.914;13.858;2024-01-11T01:51:38;16.00;;;6.43;;
36189;SDS011;22232;50.914;13.858;2024-01-11T01:54:06;17.60;;;7.45;;
36189;SDS011;22232;50.914;13.858;2024-01-11T01:56:34;14.55;;;6.28;;
36189;SDS011;22232;50.914;13.858;2024-01-11T01:59:02;13.52;;;5.43;;
36189;SDS011;22232;50.914;13.858;2024-01-11T02:01:31;14.93;;;6.00;;
36189;SDS011;22232;50.914;13.858;2024-01-11T02:04:00;13.15;;;5.35;;
36189;SDS011;22232;50.914;13.858;2024-01-11T02:06:28;12.77;;;5.13;;
36189;SDS011;22232;50.914;13.858;2024-01-11T02:08:59;11.52;;;5.20;;
36189;SDS011;22232;50.914;13.858;2024-01-11T02:11:30;8.93;;;4.78;;
36189;SDS011;22232;50.914;13.858;2024-01-11T02:13:58;10.73;;;5.03;;
36189;SDS011;22232;50.914;13.858;2024-01-11T02:16:26;12.25;;;5.63;;
36189;SDS011;22232;50.914;13.858;2024-01-11T02:18:54;10.73;;;4.95;;
36189;SDS011;22232;50.914;13.858;2024-01-11T02:21:22;11.20;;;5.32;;
36189;SDS011;22232;50.914;13.858;2024-01-11T02:24:03;10.95;;;5.30;;
36189;SDS011;22232;50.914;13.858;2024-01-11T02:26:31;12.18;;;6.05;;
36189;SDS011;22232;50.914;13.858;2024-01-11T02:28:59;13.02;;;5.88;;
36189;SDS011;22232;50.914;13.858;2024-01-11T02:31:27;10.88;;;5.03;;
36189;SDS011;22232;50.914;13.858;2024-01-11T02:33:55;10.18;;;5.05;;
36189;SDS011;22232;50.914;13.858;2024-01-11T02:36:23;12.80;;;5.78;;
36189;SDS011;22232;50.914;13.858;2024-01-11T02:38:53;13.65;;;5.70;;
36189;SDS011;22232;50.914;13.858;2024-01-11T02:41:20;12.80;;;5.85;;
36189;SDS011;22232;50.914;13.858;2024-01-11T02:43:50;14.57;;;5.30;;
36189;SDS011;22232;50.914;13.858;2024-01-11T02:46:19;13.60;;;6.10;;
36189;SDS011;22232;50.914;13.858;2024-01-11T02:48:46;11.25;;;4.88;;
36189;SDS011;22232;50.914;13.858;2024-01-11T02:51:14;12.40;;;5.50;;
36189;SDS011;22232;50.914;13.858;2024-01-11T02:53:42;13.18;;;5.53;;
36189;SDS011;22232;50.914;13.858;2024-01-11T02:56:09;12.02;;;5.38;;
36189;SDS011;22232;50.914;13.858;2024-01-11T02:58:37;11.00;;;5.32;;
36189;SDS011;22232;50.914;13.858;2024-01-11T03:01:05;16.10;;;6.13;;
36189;SDS011;22232;50.914;13.858;2024-01-11T03:03:33;15.52;;;5.75;;
36189;SDS011;22232;50.914;13.858;2024-01-11T03:06:01;14.85;;;6.47;;
36189;SDS011;22232;50.914;13.858;2024-01-11T03:08:28;13.75;;;6.55;;
36189;SDS011;22232;50.914;13.858;2024-01-11T03:10:56;13.88;;;6.40;;
36189;SDS011;22232;50.914;13.858;2024-01-11T03:13:24;17.73;;;6.70;;
36189;SDS011;22232;50.914;13.858;2024-01-11T03:15:51;14.82;;;6.65;;
36189;SDS011;22232;50.914;13.858;2024-01-11T03:18:19;14.18;;;6.05;;
36189;SDS011;22232;50.914;13.858;2024-01-11T03:20:47;15.43;;;6.90;;
36189;SDS011;22232;50.914;13.858;2024-01-11T03:23:14;13.95;;;6.55;;
36189;SDS011;22232;50.914;13.858;2024-01-11T03:25:42;14.30;;;5.80;;
36189;SDS011;22232;50.914;13.858;2024-01-11T03:28:10;18.13;;;7.15;;
36189;SDS011;22232;50.914;13.858;2024-01-11T03:30:37;15.85;;;7.07;;
36189;SDS011;22232;50.914;13.858;2024-01-11T03:33:05;16.45;;;6.63;;
36189;SDS011;22232;50.914;13.858;2024-01-11T03:35:33;13.32;;;6.22;;
36189;SDS011;22232;50.914;13.858;2024-01-11T03:38:01;14.00;;;6.45;;
36189;SDS011;22232;50.914;13.858;2024-01-11T03:40:28;14.98;;;6.55;;
36189;SDS011;22232;50.914;13.858;2024-01-11T03:42:56;15.65;;;6.30;;
36189;SDS011;22232;50.914;13.858;2024-01-11T03:45:24;15.02;;;6.80;;
36189;SDS011;22232;50.914;13.858;2024-01-11T03:47:51;16.75;;;7.38;;
36189;SDS011;22232;50.914;13.858;2024-01-11T03:50:19;20.00;;;8.38;;
36189;SDS011;22232;50.914;13.858;2024-01-11T03:52:46;19.30;;;8.40;;
36189;SDS011;22232;50.914;13.858;2024-01-11T03:55:14;17.45;;;8.13;;
36189;SDS011;22232;50.914;13.858;2024-01-11T03:57:42;19.02;;;8.55;;
36189;SDS011;22232;50.914;13.858;2024-01-11T04:00:11;19.05;;;7.90;;
36189;SDS011;22232;50.914;13.858;2024-01-11T04:02:39;19.98;;;7.97;;
36189;SDS011;22232;50.914;13.858;2024-01-11T04:05:07;16.73;;;7.75;;
36189;SDS011;22232;50.914;13.858;2024-01-11T04:07:35;20.08;;;8.13;;
36189;SDS011;22232;50.914;13.858;2024-01-11T04:10:03;18.98;;;8.10;;
36189;SDS011;22232;50.914;13.858;2024-01-11T04:12:31;15.90;;;7.07;;
36189;SDS011;22232;50.914;13.858;2024-01-11T04:14:58;17.42;;;7.05;;
36189;SDS011;22232;50.914;13.858;2024-01-11T04:17:26;17.30;;;7.47;;
36189;SDS011;22232;50.914;13.858;2024-01-11T04:19:54;22.17;;;7.85;;
36189;SDS011;22232;50.914;13.858;2024-01-11T04:22:21;15.88;;;7.00;;
36189;SDS011;22232;50.914;13.858;2024-01-11T04:24:49;17.63;;;6.78;;
36189;SDS011;22232;50.914;13.858;2024-01-11T04:27:17;15.48;;;7.28;;
36189;SDS011;22232;50.914;13.858;2024-01-11T04:29:44;14.95;;;6.85;;
36189;SDS011;22232;50.914;13.858;2024-01-11T04:32:12;18.38;;;6.45;;
36189;SDS011;22232;50.914;13.858;2024-01-11T04:34:40;13.48;;;6.15;;
36189;SDS011;22232;50.914;13.858;2024-01-11T04:37:07;18.35;;;7.20;;
36189;SDS011;22232;50.914;13.858;2024-01-11T04:39:35;14.13;;;6.47;;
36189;SDS011;22232;50.914;13.858;2024-01-11T04:42:03;18.58;;;9.45;;
36189;SDS011;22232;50.914;13.858;2024-01-11T04:44:31;18.02;;;7.93;;
36189;SDS011;22232;50.914;13.858;2024-01-11T04:46:58;16.17;;;6.80;;
36189;SDS011;22232;50.914;13.858;2024-01-11T04:49:26;14.60;;;5.80;;
36189;SDS011;22232;50.914;13.858;2024-01-11T04:51:55;12.65;;;4.88;;
36189;SDS011;22232;50.914;13.858;2024-01-11T04:54:23;9.57;;;4.93;;
36189;SDS011;22232;50.914;13.858;2024-01-11T04:56:51;9.80;;;4.55;;
36189;SDS011;22232;50.914;13.858;2024-01-11T04:59:19;15.20;;;6.57;;
36189;SDS011;22232;50.914;13.858;2024-01-11T05:01:47;14.25;;;6.50;;
36189;SDS011;22232;50.914;13.858;2024-01-11T05:04:14;15.65;;;6.40;;
36189;SDS011;22232;50.914;13.858;2024-01-11T05:06:42;13.70;;;6.20;;
36189;SDS011;22232;50.914;13.858;2024-01-11T05:09:10;17.08;;;6.70;;
36189;SDS011;22232;50.914;13.858;2024-01-11T05:11:37;18.88;;;8.35;;
36189;SDS011;22232;50.914;13.858;2024-01-11T05:14:05;18.20;;;8.00;;
36189;SDS011;22232;50.914;13.858;2024-01-11T05:16:33;20.17;;;7.70;;
36189;SDS011;22232;50.914;13.858;2024-01-11T05:19:02;14.95;;;6.72;;
36189;SDS011;22232;50.914;13.858;2024-01-11T05:21:30;13.43;;;6.60;;
36189;SDS011;22232;50.914;13.858;2024-01-11T05:23:58;14.80;;;6.20;;
36189;SDS011;22232;50.914;13.858;2024-01-11T05:26:25;15.98;;;6.55;;
36189;SDS011;22232;50.914;13.858;2024-01-11T05:28:53;14.82;;;6.10;;
36189;SDS011;22232;50.914;13.858;2024-01-11T05:31:21;21.23;;;7.68;;
36189;SDS011;22232;50.914;13.858;2024-01-11T05:33:49;16.42;;;7.68;;
36189;SDS011;22232;50.914;13.858;2024-01-11T05:36:17;16.48;;;7.35;;
36189;SDS011;22232;50.914;13.858;2024-01-11T05:38:45;19.58;;;8.07;;
36189;SDS011;22232;50.914;13.858;2024-01-11T05:41:13;20.25;;;8.73;;
36189;SDS011;22232;50.914;13.858;2024-01-11T05:43:41;18.85;;;8.93;;
36189;SDS011;22232;50.914;13.858;2024-01-11T05:46:10;20.65;;;8.38;;
36189;SDS011;22232;50.914;13.858;2024-01-11T05:48:38;23.95;;;9.93;;
36189;SDS011;22232;50.914;13.858;2024-01-11T05:51:06;18.60;;;7.80;;
36189;SDS011;22232;50.914;13.858;2024-01-11T05:53:33;19.88;;;8.48;;
36189;SDS011;22232;50.914;13.858;2024-01-11T05:56:09;22.83;;;8.93;;
36189;SDS011;22232;50.914;13.858;2024-01-11T05:58:39;18.30;;;8.82;;
36189;SDS011;22232;50.914;13.858;2024-01-11T06:01:07;21.00;;;9.07;;
36189;SDS011;22232;50.914;13.858;2024-01-11T06:03:35;24.05;;;10.35;;
36189;SDS011;22232;50.914;13.858;2024-01-11T06:06:03;23.70;;;9.60;;
36189;SDS011;22232;50.914;13.858;2024-01-11T06:08:31;22.75;;;9.82;;
36189;SDS011;22232;50.914;13.858;2024-01-11T06:10:59;25.50;;;9.77;;
36189;SDS011;22232;50.914;13.858;2024-01-11T06:13:27;18.95;;;9.10;;
36189;SDS011;22232;50.914;13.858;2024-01-11T06:15:55;23.60;;;9.93;;
36189;SDS011;22232;50.914;13.858;2024-01-11T06:18:22;25.92;;;9.90;;
36189;SDS011;22232;50.914;13.858;2024-01-11T06:20:50;23.75;;;10.18;;
36189;SDS011;22232;50.914;13.858;2024-01-11T06:23:18;22.25;;;9.38;;
36189;SDS011;22232;50.914;13.858;2024-01-11T06:25:47;22.65;;;9.20;;
36189;SDS011;22232;50.914;13.858;2024-01-11T06:28:14;23.63;;;9.40;;
36189;SDS011;22232;50.914;13.858;2024-01-11T06:30:42;21.02;;;8.35;;
36189;SDS011;22232;50.914;13.858;2024-01-11T06:33:10;18.50;;;8.50;;
36189;SDS011;22232;50.914;13.858;2024-01-11T06:35:38;17.40;;;7.75;;
36189;SDS011;22232;50.914;13.858;2024-01-11T06:38:07;18.35;;;7.90;;
36189;SDS011;22232;50.914;13.858;2024-01-11T06:40:35;17.00;;;6.45;;
36189;SDS011;22232;50.914;13.858;2024-01-11T06:43:03;19.65;;;7.78;;
36189;SDS011;22232;50.914;13.858;2024-01-11T06:45:30;19.75;;;8.20;;
36189;SDS011;22232;50.914;13.858;2024-01-11T06:47:58;19.38;;;8.07;;
36189;SDS011;22232;50.914;13.858;2024-01-11T06:50:26;26.25;;;8.85;;
36189;SDS011;22232;50.914;13.858;2024-01-11T06:52:54;18.40;;;7.85;;
36189;SDS011;22232;50.914;13.858;2024-01-11T06:55:22;14.25;;;6.68;;
36189;SDS011;22232;50.914;13.858;2024-01-11T06:57:50;17.55;;;8.07;;
36189;SDS011;22232;50.914;13.858;2024-01-11T07:00:17;19.73;;;8.30;;
36189;SDS011;22232;50.914;13.858;2024-01-11T07:02:45;20.55;;;8.55;;
36189;SDS011;22232;50.914;13.858;2024-01-11T07:05:13;19.42;;;7.80;;
36189;SDS011;22232;50.914;13.858;2024-01-11T07:07:41;19.58;;;7.05;;
36189;SDS011;22232;50.914;13.858;2024-01-11T07:10:09;15.80;;;7.13;;
36189;SDS011;22232;50.914;13.858;2024-01-11T07:12:36;16.00;;;7.03;;
36189;SDS011;22232;50.914;13.858;2024-01-11T07:15:06;16.52;;;7.05;;
36189;SDS011;22232;50.914;13.858;2024-01-11T07:17:35;19.67;;;8.13;;
36189;SDS011;22232;50.914;13.858;2024-01-11T07:20:03;18.05;;;7.85;;
36189;SDS011;22232;50.914;13.858;2024-01-11T07:22:31;17.27;;;7.80;;
36189;SDS011;22232;50.914;13.858;2024-01-11T07:24:59;20.77;;;8.38;;
36189;SDS011;22232;50.914;13.858;2024-01-11T07:27:27;18.67;;;8.48;;
36189;SDS011;22232;50.914;13.858;2024-01-11T07:29:54;15.95;;;7.55;;
36189;SDS011;22232;50.914;13.858;2024-01-11T07:32:22;16.33;;;7.53;;
36189;SDS011;22232;50.914;13.858;2024-01-11T07:34:50;18.48;;;7.40;;
36189;SDS011;22232;50.914;13.858;2024-01-11T07:37:18;20.10;;;8.23;;
36189;SDS011;22232;50.914;13.858;2024-01-11T07:39:45;19.27;;;8.05;;
36189;SDS011;22232;50.914;13.858;2024-01-11T07:42:13;13.07;;;6.55;;
36189;SDS011;22232;50.914;13.858;2024-01-11T07:44:41;15.63;;;7.03;;
36189;SDS011;22232;50.914;13.858;2024-01-11T07:47:10;17.95;;;7.65;;
36189;SDS011;22232;50.914;13.858;2024-01-11T07:49:38;18.55;;;7.80;;
36189;SDS011;22232;50.914;13.858;2024-01-11T07:52:06;18.80;;;9.43;;
36189;SDS011;22232;50.914;13.858;2024-01-11T07:54:34;20.60;;;8.70;;
36189;SDS011;22232;50.914;13.858;2024-01-11T07:57:02;19.27;;;7.97;;
36189;SDS011;22232;50.914;13.858;2024-01-11T07:59:33;19.75;;;8.50;;
36189;SDS011;22232;50.914;13.858;2024-01-11T08:02:03;15.35;;;7.57;;
36189;SDS011;22232;50.914;13.858;2024-01-11T08:04:31;18.83;;;8.27;;
36189;SDS011;22232;50.914;13.858;2024-01-11T08:06:59;17.95;;;8.50;;
36189;SDS011;22232;50.914;13.858;2024-01-11T08:09:27;20.35;;;9.27;;
36189;SDS011;22232;50.914;13.858;2024-01-11T08:11:55;18.58;;;8.10;;
36189;SDS011;22232;50.914;13.858;2024-01-11T08:14:23;17.10;;;8.30;;
36189;SDS011;22232;50.914;13.858;2024-01-11T08:16:52;20.38;;;8.35;;
36189;SDS011;22232;50.914;13.858;2024-01-11T08:19:21;18.15;;;8.40;;
36189;SDS011;22232;50.914;13.858;2024-01-11T08:21:48;14.40;;;7.15;;
36189;SDS011;22232;50.914;13.858;2024-01-11T08:24:16;14.70;;;6.78;;
36189;SDS011;22232;50.914;13.858;2024-01-11T08:26:45;17.63;;;7.70;;
36189;SDS011;22232;50.914;13.858;2024-01-11T08:29:15;19.58;;;8.35;;
36189;SDS011;22232;50.914;13.858;2024-01-11T08:31:43;17.10;;;8.45;;
36189;SDS011;22232;50.914;13.858;2024-01-11T08:34:11;17.55;;;8.30;;
36189;SDS011;22232;50.914;13.858;2024-01-11T08:36:39;19.50;;;9.30;;
36189;SDS011;22232;50.914;13.858;2024-01-11T08:39:07;20.85;;;8.90;;
36189;SDS011;22232;50.914;13.858;2024-01-11T08:41:35;20.30;;;8.95;;
36189;SDS011;22232;50.914;13.858;2024-01-11T08:44:05;20.30;;;9.50;;
36189;SDS011;22232;50.914;13.858;2024-01-11T08:46:35;23.10;;;9.65;;
36189;SDS011;22232;50.914;13.858;2024-01-11T08:49:03;20.67;;;9.68;;
36189;SDS011;22232;50.914;13.858;2024-01-11T08:51:31;19.98;;;8.80;;
36189;SDS011;22232;50.914;13.858;2024-01-11T08:53:59;24.30;;;9.55;;
36189;SDS011;22232;50.914;13.858;2024-01-11T08:56:27;22.35;;;8.77;;
36189;SDS011;22232;50.914;13.858;2024-01-11T08:58:55;20.35;;;9.93;;
36189;SDS011;22232;50.914;13.858;2024-01-11T09:01:23;22.73;;;10.40;;
36189;SDS011;22232;50.914;13.858;2024-01-11T09:03:52;24.52;;;10.30;;
36189;SDS011;22232;50.914;13.858;2024-01-11T09:06:20;21.95;;;9.63;;
36189;SDS011;22232;50.914;13.858;2024-01-11T09:08:48;21.25;;;10.02;;
36189;SDS011;22232;50.914;13.858;2024-01-11T09:11:16;21.52;;;8.73;;
36189;SDS011;22232;50.914;13.858;2024-01-11T09:13:44;19.92;;;9.52;;
36189;SDS011;22232;50.914;13.858;2024-01-11T09:16:16;20.17;;;9.25;;
36189;SDS011;22232;50.914;13.858;2024-01-11T09:18:44;20.05;;;8.98;;
36189;SDS011;22232;50.914;13.858;2024-01-11T09:21:12;17.55;;;8.60;;
36189;SDS011;22232;50.914;13.858;2024-01-11T09:23:40;22.17;;;9.63;;
36189;SDS011;22232;50.914;13.858;2024-01-11T09:26:08;23.50;;;9.45;;
36189;SDS011;22232;50.914;13.858;2024-01-11T09:28:36;18.23;;;8.70;;
36189;SDS011;22232;50.914;13.858;2024-01-11T09:31:03;18.95;;;9.95;;
36189;SDS011;22232;50.914;13.858;2024-01-11T09:33:31;28.63;;;12.60;;
36189;SDS011;22232;50.914;13.858;2024-01-11T09:35:59;30.27;;;14.27;;
36189;SDS011;22232;50.914;13.858;2024-01-11T09:38:27;31.58;;;12.68;;
36189;SDS011;22232;50.914;13.858;2024-01-11T09:41:07;25.23;;;11.38;;
36189;SDS011;22232;50.914;13.858;2024-01-11T09:43:40;23.50;;;10.43;;
36189;SDS011;22232;50.914;13.858;2024-01-11T09:46:09;25.42;;;12.00;;
36189;SDS011;22232;50.914;13.858;2024-01-11T09:48:39;24.10;;;11.15;;
36189;SDS011;22232;50.914;13.858;2024-01-11T09:51:10;27.20;;;11.82;;
36189;SDS011;22232;50.914;13.858;2024-01-11T09:53:39;25.02;;;11.15;;
36189;SDS011;22232;50.914;13.858;2024-01-11T09:56:08;28.25;;;12.02;;
36189;SDS011;22232;50.914;13.858;2024-01-11T09:58:37;27.95;;;14.15;;
36189;SDS011;22232;50.914;13.858;2024-01-11T10:01:11;32.83;;;15.35;;
36189;SDS011;22232;50.914;13.858;2024-01-11T10:03:41;32.53;;;12.43;;
36189;SDS011;22232;50.914;13.858;2024-01-11T10:06:13;38.30;;;16.60;;
36189;SDS011;22232;50.914;13.858;2024-01-11T10:08:43;34.45;;;15.65;;
36189;SDS011;22232;50.914;13.858;2024-01-11T10:11:11;38.65;;;16.25;;
36189;SDS011;22232;50.914;13.858;2024-01-11T10:13:39;33.20;;;16.02;;
36189;SDS011;22232;50.914;13.858;2024-01-11T10:16:08;33.47;;;13.65;;
36189;SDS011;22232;50.914;13.858;2024-01-11T10:18:44;32.75;;;14.63;;
36189;SDS011;22232;50.914;13.858;2024-01-11T10:21:11;35.83;;;15.30;;
36189;SDS011;22232;50.914;13.858;2024-01-11T10:23:39;29.13;;;13.48;;
36189;SDS011;22232;50.914;13.858;2024-01-11T10:26:07;39.25;;;16.08;;
36189;SDS011;22232;50.914;13.858;2024-01-11T10:28:35;37.63;;;16.65;;
36189;SDS011;22232;50.914;13.858;2024-01-11T10:31:06;33.78;;;15.65;;
36189;SDS011;22232;50.914;13.858;2024-01-11T10:33:34;32.80;;;15.13;;
36189;SDS011;22232;50.914;13.858;2024-01-11T10:36:03;31.33;;;14.48;;
36189;SDS011;22232;50.914;13.858;2024-01-11T10:38:31;30.52;;;12.18;;
36189;SDS011;22232;50.914;13.858;2024-01-11T10:41:04;29.85;;;13.50;;
36189;SDS011;22232;50.914;13.858;2024-01-11T10:43:37;28.00;;;12.68;;
36189;SDS011;22232;50.914;13.858;2024-01-11T10:46:05;26.92;;;12.57;;
36189;SDS011;22232;50.914;13.858;2024-01-11T10:48:38;25.80;;;12.40;;
36189;SDS011;22232;50.914;13.858;2024-01-11T10:51:09;24.58;;;11.50;;
36189;SDS011;22232;50.914;13.858;2024-01-11T10:53:45;28.08;;;12.43;;
36189;SDS011;22232;50.914;13.858;2024-01-11T10:56:15;24.48;;;11.55;;
36189;SDS011;22232;50.914;13.858;2024-01-11T10:58:46;28.20;;;11.88;;
36189;SDS011;22232;50.914;13.858;2024-01-11T11:01:14;23.20;;;11.10;;
36189;SDS011;22232;50.914;13.858;2024-01-11T11:03:44;27.08;;;11.50;;
36189;SDS011;22232;50.914;13.858;2024-01-11T11:06:13;24.83;;;10.65;;
36189;SDS011;22232;50.914;13.858;2024-01-11T11:08:42;22.48;;;10.48;;
36189;SDS011;22232;50.914;13.858;2024-01-11T11:11:12;22.17;;;10.43;;
36189;SDS011;22232;50.914;13.858;2024-01-11T11:13:41;27.70;;;10.85;;
36189;SDS011;22232;50.914;13.858;2024-01-11T11:16:10;21.77;;;10.98;;
36189;SDS011;22232;50.914;13.858;2024-01-11T11:18:38;24.35;;;10.65;;
36189;SDS011;22232;50.914;13.858;2024-01-11T11:21:09;22.65;;;10.75;;
36189;SDS011;22232;50.914;13.858;2024-01-11T11:23:40;23.80;;;11.50;;
36189;SDS011;22232;50.914;13.858;2024-01-11T11:26:08;27.33;;;11.85;;
36189;SDS011;22232;50.914;13.858;2024-01-11T11:28:44;25.75;;;11.95;;
36189;SDS011;22232;50.914;13.858;2024-01-11T11:31:12;23.27;;;11.98;;
36189;SDS011;22232;50.914;13.858;2024-01-11T11:33:40;26.42;;;12.10;;
36189;SDS011;22232;50.914;13.858;2024-01-11T11:36:11;32.25;;;13.77;;
36189;SDS011;22232;50.914;13.858;2024-01-11T11:38:40;28.92;;;14.10;;
36189;SDS011;22232;50.914;13.858;2024-01-11T11:41:08;29.27;;;13.77;;
36189;SDS011;22232;50.914;13.858;2024-01-11T11:43:38;31.10;;;13.68;;
36189;SDS011;22232;50.914;13.858;2024-01-11T11:46:07;35.83;;;16.02;;
36189;SDS011;22232;50.914;13.858;2024-01-11T11:48:51;37.05;;;17.15;;
36189;SDS011;22232;50.914;13.858;2024-01-11T11:51:20;37.38;;;17.52;;
36189;SDS011;22232;50.914;13.858;2024-01-11T11:53:52;42.10;;;18.57;;
36189;SDS011;22232;50.914;13.858;2024-01-11T11:56:21;37.22;;;17.55;;
36189;SDS011;22232;50.914;13.858;2024-01-11T11:58:51;39.08;;;19.08;;
36189;SDS011;22232;50.914;13.858;2024-01-11T12:01:23;39.65;;;18.63;;
36189;SDS011;22232;50.914;13.858;2024-01-11T12:03:51;48.22;;;18.77;;
36189;SDS011;22232;50.914;13.858;2024-01-11T12:06:20;44.28;;;19.30;;
36189;SDS011;22232;50.914;13.858;2024-01-11T12:08:53;45.13;;;19.27;;
36189;SDS011;22232;50.914;13.858;2024-01-11T12:11:24;50.22;;;20.80;;
36189;SDS011;22232;50.914;13.858;2024-01-11T12:13:53;46.92;;;21.00;;
36189;SDS011;22232;50.914;13.858;2024-01-11T12:16:23;48.13;;;21.08;;
36189;SDS011;22232;50.914;13.858;2024-01-11T12:18:51;48.97;;;21.30;;
36189;SDS011;22232;50.914;13.858;2024-01-11T12:21:19;49.95;;;22.40;;
36189;SDS011;22232;50.914;13.858;2024-01-11T12:23:47;42.60;;;19.83;;
36189;SDS011;22232;50.914;13.858;2024-01-11T12:26:16;41.35;;;17.67;;
36189;SDS011;22232;50.914;13.858;2024-01-11T12:28:50;44.60;;;19.85;;
36189;SDS011;22232;50.914;13.858;2024-01-11T12:31:18;40.70;;;19.05;;
36189;SDS011;22232;50.914;13.858;2024-01-11T12:33:48;45.22;;;20.45;;
36189;SDS011;22232;50.914;13.858;2024-01-11T12:36:17;48.25;;;21.98;;
36189;SDS011;22232;50.914;13.858;2024-01-11T12:38:54;52.17;;;23.65;;
36189;SDS011;22232;50.914;13.858;2024-01-11T12:41:22;61.90;;;26.33;;
36189;SDS011;22232;50.914;13.858;2024-01-11T12:43:51;63.30;;;25.90;;
36189;SDS011;22232;50.914;13.858;2024-01-11T12:46:20;63.97;;;27.13;;
36189;SDS011;22232;50.914;13.858;2024-01-11T12:48:48;56.50;;;25.23;;
36189;SDS011;22232;50.914;13.858;2024-01-11T12:51:17;59.00;;;25.80;;
36189;SDS011;22232;50.914;13.858;2024-01-11T12:53:48;63.38;;;27.90;;
36189;SDS011;22232;50.914;13.858;2024-01-11T12:56:17;62.08;;;28.45;;
36189;SDS011;22232;50.914;13.858;2024-01-11T12:58:49;72.93;;;29.98;;
36189;SDS011;22232;50.914;13.858;2024-01-11T13:01:17;74.40;;;30.85;;
36189;SDS011;22232;50.914;13.858;2024-01-11T13:03:46;74.93;;;30.27;;
36189;SDS011;22232;50.914;13.858;2024-01-11T13:06:15;66.78;;;29.33;;
36189;SDS011;22232;50.914;13.858;2024-01-11T13:08:44;69.10;;;30.58;;
36189;SDS011;22232;50.914;13.858;2024-01-11T13:11:12;76.13;;;30.85;;
36189;SDS011;22232;50.914;13.858;2024-01-11T13:13:44;69.10;;;30.52;;
36189;SDS011;22232;50.914;13.858;2024-01-11T13:16:14;70.68;;;31.08;;
36189;SDS011;22232;50.914;13.858;2024-01-11T13:18:43;69.90;;;30.10;;
36189;SDS011;22232;50.914;13.858;2024-01-11T13:21:11;71.45;;;29.70;;
36189;SDS011;22232;50.914;13.858;2024-01-11T13:23:42;69.22;;;29.52;;
36189;SDS011;22232;50.914;13.858;2024-01-11T13:26:10;60.95;;;26.90;;
36189;SDS011;22232;50.914;13.858;2024-01-11T13:28:38;66.72;;;28.73;;
36189;SDS011;22232;50.914;13.858;2024-01-11T13:31:06;68.30;;;27.33;;
36189;SDS011;22232;50.914;13.858;2024-01-11T13:33:37;61.55;;;26.48;;
36189;SDS011;22232;50.914;13.858;2024-01-11T13:36:05;58.67;;;24.67;;
36189;SDS011;22232;50.914;13.858;2024-01-11T13:38:35;57.90;;;23.95;;
36189;SDS011;22232;50.914;13.858;2024-01-11T13:41:03;57.50;;;22.08;;
36189;SDS011;22232;50.914;13.858;2024-01-11T13:43:32;51.60;;;22.33;;
36189;SDS011;22232;50.914;13.858;2024-01-11T13:46:00;51.88;;;21.23;;
36189;SDS011;22232;50.914;13.858;2024-01-11T13:48:32;45.42;;;19.80;;
36189;SDS011;22232;50.914;13.858;2024-01-11T13:51:00;42.92;;;16.63;;
36189;SDS011;22232;50.914;13.858;2024-01-11T13:53:31;28.50;;;12.32;;
36189;SDS011;22232;50.914;13.858;2024-01-11T13:55:59;26.65;;;11.48;;
36189;SDS011;22232;50.914;13.858;2024-01-11T13:58:27;24.90;;;11.50;;
36189;SDS011;22232;50.914;13.858;2024-01-11T14:00:54;24.23;;;11.38;;
36189;SDS011;22232;50.914;13.858;2024-01-11T14:03:24;26.98;;;11.30;;
36189;SDS011;22232;50.914;13.858;2024-01-11T14:05:52;26.05;;;11.27;;
36189;SDS011;22232;50.914;13.858;2024-01-11T14:08:20;26.95;;;11.52;;
36189;SDS011;22232;50.914;13.858;2024-01-11T14:10:48;25.00;;;11.90;;
36189;SDS011;22232;50.914;13.858;2024-01-11T14:13:16;23.45;;;10.93;;
36189;SDS011;22232;50.914;13.858;2024-01-11T14:15:44;29.05;;;11.70;;
36189;SDS011;22232;50.914;13.858;2024-01-11T14:18:12;29.13;;;13.02;;
36189;SDS011;22232;50.914;13.858;2024-01-11T14:20:40;36.20;;;14.02;;
36189;SDS011;22232;50.914;13.858;2024-01-11T14:23:08;27.88;;;12.75;;
36189;SDS011;22232;50.914;13.858;2024-01-11T14:25:36;31.05;;;13.23;;